Time;durP1;ratioP1;P1;durP2;ratioP2;P2;SDS_P1;SDS_P2;PMS_P1;PMS_P2;Temp;Humidity;BMP_temperature;BMP_pressure;BME280_temperature;BME280_humidity;BME280_pressure;Samples;Min_cycle;Max_cycle;Signal;HPM_P1;HPM_P2
2022/09/30 00:00:26;;;;;;;260.40;127.80;;;;;;;5.12;100.00;98697.58;100778;1335;24400;-36
2022/09/30 00:02:52;;;;;;;81.70;46.40;;;;;;;5.10;100.00;98704.27;100864;1341;24481;-35
2022/09/30 00:05:17;;;;;;;39.10;22.10;;;;;;;5.07;100.00;98699.70;100752;1334;22760;-31
2022/09/30 00:07:43;;;;;;;48.50;25.30;;;;;;;5.04;100.00;98701.39;100733;1342;22531;-32
2022/09/30 00:10:09;;;;;;;56.20;27.20;;;;;;;5.00;100.00;98702.21;100766;1337;22506;-34
2022/09/30 00:12:34;;;;;;;42.90;24.80;;;;;;;4.98;100.00;98708.70;100765;1332;22495;-33
2022/09/30 00:15:00;;;;;;;58.60;27.50;;;;;;;4.98;100.00;98713.89;100816;1331;25559;-36
2022/09/30 00:17:27;;;;;;;60.90;26.70;;;;;;;4.95;100.00;98719.52;100704;1334;23046;-32
2022/09/30 00:19:53;;;;;;;43.10;25.30;;;;;;;4.92;100.00;98718.28;100801;1340;24289;-34
2022/09/30 00:22:18;;;;;;;28.00;16.60;;;;;;;4.87;100.00;98728.26;100754;1336;22874;-36
2022/09/30 00:24:45;;;;;;;54.90;30.30;;;;;;;4.81;100.00;98732.65;100793;1324;24457;-32
2022/09/30 00:27:11;;;;;;;53.80;25.80;;;;;;;4.75;100.00;98736.67;100796;1337;22501;-32
2022/09/30 00:29:37;;;;;;;41.80;22.50;;;;;;;4.72;100.00;98740.63;100699;1340;22948;-35
2022/09/30 00:32:02;;;;;;;42.50;21.80;;;;;;;4.67;100.00;98743.98;100731;1339;24357;-36
2022/09/30 00:34:28;;;;;;;42.90;25.30;;;;;;;4.63;100.00;98746.84;100675;1334;22865;-35
2022/09/30 00:36:54;;;;;;;64.00;37.40;;;;;;;4.63;100.00;98744.13;100732;1330;24690;-35
2022/09/30 00:39:22;;;;;;;79.00;49.70;;;;;;;4.60;100.00;98738.88;100801;1338;23109;-31
2022/09/30 00:41:51;;;;;;;74.10;41.70;;;;;;;4.60;100.00;98734.09;100757;1337;22751;-34
2022/09/30 00:44:23;;;;;;;100.40;49.30;;;;;;;4.61;100.00;98734.52;100791;1338;22732;-31
2022/09/30 00:46:50;;;;;;;58.90;33.60;;;;;;;4.59;100.00;98732.81;100868;1342;25298;-34
2022/09/30 00:49:18;;;;;;;76.10;43.00;;;;;;;4.59;100.00;98739.10;100796;1334;22745;-33
2022/09/30 00:51:46;;;;;;;89.20;39.80;;;;;;;4.60;100.00;98741.78;100932;1342;24346;-37
2022/09/30 00:54:14;;;;;;;76.40;37.40;;;;;;;4.61;100.00;98741.27;100810;1331;24357;-36
2022/09/30 00:56:43;;;;;;;61.10;31.40;;;;;;;4.60;100.00;98741.18;100754;1338;22499;-33
2022/09/30 00:59:13;;;;;;;74.40;36.60;;;;;;;4.59;100.00;98742.22;100895;1340;24418;-36
2022/09/30 01:01:39;;;;;;;68.70;33.30;;;;;;;4.60;100.00;98743.57;100761;1342;25574;-32
2022/09/30 01:04:09;;;;;;;57.30;29.00;;;;;;;4.61;100.00;98750.52;100787;1337;24482;-31
2022/09/30 01:06:35;;;;;;;46.50;22.60;;;;;;;4.64;100.00;98752.98;100762;1342;25339;-35
2022/09/30 01:09:01;;;;;;;53.80;26.30;;;;;;;4.68;100.00;98752.01;100698;1334;23219;-32
2022/09/30 01:11:27;;;;;;;44.30;24.20;;;;;;;4.73;100.00;98754.92;100776;1338;22856;-35
2022/09/30 01:13:54;;;;;;;51.60;28.80;;;;;;;4.76;100.00;98758.38;100942;1337;22959;-36
2022/09/30 01:16:27;;;;;;;51.50;27.50;;;;;;;4.80;100.00;98759.88;100799;1328;22491;-35
2022/09/30 01:18:56;;;;;;;35.90;20.50;;;;;;;4.84;100.00;98762.48;100814;1340;25505;-35
2022/09/30 01:21:29;;;;;;;43.00;22.30;;;;;;;4.88;100.00;98762.88;100806;1334;23065;-35
2022/09/30 01:24:12;;;;;;;46.40;21.50;;;;;;;4.93;100.00;98767.66;100757;1340;24468;-35
2022/09/30 01:26:51;;;;;;;36.30;22.60;;;;;;;4.97;100.00;98767.20;100833;1337;22905;-35
2022/09/30 01:29:20;;;;;;;76.60;39.00;;;;;;;5.03;100.00;98761.74;100743;1334;22921;-31
2022/09/30 01:31:52;;;;;;;30.00;18.70;;;;;;;5.07;100.00;98758.05;100814;1334;25291;-32
2022/09/30 01:34:27;;;;;;;28.40;18.30;;;;;;;5.11;100.00;98752.44;100863;1340;24274;-32
2022/09/30 01:37:02;;;;;;;37.90;20.70;;;;;;;5.14;100.00;98751.15;100756;1342;22876;-35
2022/09/30 01:39:31;;;;;;;35.20;14.90;;;;;;;5.20;100.00;98755.91;100748;1337;24491;-31
2022/09/30 01:42:05;;;;;;;24.30;15.40;;;;;;;5.22;100.00;98757.71;100792;1328;23233;-32
2022/09/30 01:44:37;;;;;;;84.40;39.50;;;;;;;5.25;100.00;98769.07;100769;1342;24288;-37
2022/09/30 01:47:08;;;;;;;47.40;21.70;;;;;;;5.27;100.00;98768.09;100864;1342;22588;-35
2022/09/30 01:49:37;;;;;;;35.00;18.40;;;;;;;5.31;100.00;98767.87;100860;1342;22499;-37
2022/09/30 01:52:08;;;;;;;36.20;21.50;;;;;;;5.33;100.00;98768.73;100793;1331;22889;-34
2022/09/30 01:54:37;;;;;;;35.50;21.40;;;;;;;5.33;100.00;98765.13;100728;1334;24486;-34
2022/09/30 01:57:08;;;;;;;30.50;18.30;;;;;;;5.35;100.00;98764.86;100773;1337;23044;-32
2022/09/30 01:59:36;;;;;;;29.10;17.80;;;;;;;5.38;100.00;98766.17;100784;1338;25262;-32
2022/09/30 02:02:05;;;;;;;32.00;19.20;;;;;;;5.41;100.00;98763.90;100788;1339;25448;-32
2022/09/30 02:04:35;;;;;;;20.60;13.20;;;;;;;5.41;100.00;98765.08;100804;1339;24366;-35
2022/09/30 02:07:03;;;;;;;36.30;18.80;;;;;;;5.40;100.00;98773.52;100719;1326;24531;-32
2022/09/30 02:09:35;;;;;;;38.10;15.20;;;;;;;5.41;100.00;98778.56;100884;1338;22760;-35
2022/09/30 02:12:03;;;;;;;31.90;19.00;;;;;;;5.44;100.00;98791.77;100885;1339;22512;-35
2022/09/30 02:14:32;;;;;;;30.20;16.90;;;;;;;5.48;100.00;98791.20;100835;1334;24463;-34
2022/09/30 02:17:02;;;;;;;32.40;17.60;;;;;;;5.52;100.00;98793.17;100809;1339;22496;-36
2022/09/30 02:19:40;;;;;;;25.80;14.10;;;;;;;5.54;100.00;98786.81;100723;1327;23096;-33
2022/09/30 02:22:12;;;;;;;29.90;19.00;;;;;;;5.58;100.00;98790.38;100690;1334;24363;-31
2022/09/30 02:24:37;;;;;;;28.00;18.70;;;;;;;5.65;100.00;98789.66;100794;1339;24370;-31
2022/09/30 02:27:06;;;;;;;37.20;22.60;;;;;;;5.66;100.00;98785.29;100761;1331;25739;-35
2022/09/30 02:29:35;;;;;;;36.30;22.20;;;;;;;5.62;100.00;98771.34;100761;1331;22823;-32
2022/09/30 02:32:05;;;;;;;35.20;20.00;;;;;;;5.60;100.00;98765.33;100780;1339;24375;-35
2022/09/30 02:34:34;;;;;;;41.80;22.50;;;;;;;5.59;100.00;98763.11;100810;1338;23088;-35
2022/09/30 02:37:07;;;;;;;35.40;21.70;;;;;;;5.59;100.00;98763.67;100841;1339;22862;-36
2022/09/30 02:39:55;;;;;;;35.90;22.00;;;;;;;5.57;100.00;98763.31;100946;1339;25225;-33
2022/09/30 02:42:26;;;;;;;34.70;22.00;;;;;;;5.56;100.00;98765.46;100819;1322;22858;-35
2022/09/30 02:44:51;;;;;;;36.40;21.10;;;;;;;5.57;100.00;98767.65;100720;1339;24259;-35
2022/09/30 02:47:24;;;;;;;38.10;20.10;;;;;;;5.59;100.00;98770.97;100879;1338;22735;-35
2022/09/30 02:49:55;;;;;;;36.70;17.40;;;;;;;5.58;100.00;98774.45;100819;1337;25282;-35
2022/09/30 02:52:26;;;;;;;32.70;20.90;;;;;;;5.57;100.00;98778.05;100808;1331;24297;-32
2022/09/30 02:54:58;;;;;;;27.00;16.10;;;;;;;5.57;100.00;98780.55;100806;1339;23233;-32
2022/09/30 02:57:32;;;;;;;29.10;18.90;;;;;;;5.57;100.00;98779.54;100775;1334;24370;-35
2022/09/30 02:59:58;;;;;;;33.40;22.60;;;;;;;5.59;100.00;98786.77;100788;1339;25551;-41
2022/09/30 03:02:23;;;;;;;37.30;23.50;;;;;;;5.59;100.00;98795.40;100678;1331;22782;-35
2022/09/30 03:04:50;;;;;;;41.70;26.60;;;;;;;5.62;100.00;98796.78;100782;1334;22763;-33
2022/09/30 03:07:16;;;;;;;35.70;22.10;;;;;;;5.61;100.00;98790.75;100797;1339;24430;-35
2022/09/30 03:09:41;;;;;;;35.30;21.00;;;;;;;5.62;100.00;98792.48;100945;1336;22507;-36
2022/09/30 03:12:11;;;;;;;34.80;19.90;;;;;;;5.63;100.00;98791.34;100737;1339;22883;-36
2022/09/30 03:14:45;;;;;;;27.20;16.70;;;;;;;5.62;100.00;98788.92;100708;1331;25308;-36
2022/09/30 03:17:16;;;;;;;;;;;;;;;5.65;100.00;98794.83;100750;1328;25420;-36
2022/09/30 03:19:49;;;;;;;44.80;23.70;;;;;;;5.66;100.00;98807.09;100806;1324;22754;-36
2022/09/30 03:22:25;;;;;;;32.00;19.20;;;;;;;5.69;100.00;98809.04;100827;1324;24376;-32
2022/09/30 03:24:59;;;;;;;21.60;13.10;;;;;;;5.69;100.00;98807.45;100785;1336;22938;-32
2022/09/30 03:27:31;;;;;;;32.60;20.40;;;;;;;5.73;100.00;98819.83;100757;1339;22521;-35
2022/09/30 03:30:00;;;;;;;17.10;12.30;;;;;;;5.76;100.00;98826.66;100728;1339;22521;-36
2022/09/30 03:32:30;;;;;;;25.30;14.70;;;;;;;5.81;100.00;98838.52;100786;1339;24350;-32
2022/09/30 03:35:02;;;;;;;32.40;19.90;;;;;;;5.84;100.00;98840.45;100750;1339;24379;-35
2022/09/30 03:37:33;;;;;;;38.50;18.30;;;;;;;5.88;100.00;98846.48;100730;1339;25343;-35
2022/09/30 03:40:09;;;;;;;32.50;18.30;;;;;;;5.92;100.00;98844.02;100749;1339;22514;-37
2022/09/30 03:42:38;;;;;;;28.30;18.90;;;;;;;5.93;100.00;98840.33;100775;1338;22506;-33
2022/09/30 03:45:07;;;;;;;21.90;14.10;;;;;;;5.95;100.00;98836.39;100751;1342;22820;-35
2022/09/30 03:47:34;;;;;;;15.90;10.40;;;;;;;5.96;100.00;98843.70;100833;1337;23306;-36
2022/09/30 03:50:03;;;;;;;14.20;9.70;;;;;;;5.99;100.00;98848.91;100741;1338;24427;-35
2022/09/30 03:52:29;;;;;;;20.50;11.70;;;;;;;6.02;100.00;98859.17;100798;1338;24359;-32
2022/09/30 03:54:57;;;;;;;26.80;16.10;;;;;;;6.05;100.00;98869.64;100866;1339;22909;-37
2022/09/30 03:57:27;;;;;;;38.80;19.50;;;;;;;6.09;100.00;98870.84;100914;1339;25323;-38
2022/09/30 03:59:53;;;;;;;18.20;12.20;;;;;;;6.10;100.00;98863.27;100743;1339;22514;-33
2022/09/30 04:02:19;;;;;;;16.50;10.50;;;;;;;6.11;100.00;98863.67;100802;1338;22735;-33
2022/09/30 04:04:45;;;;;;;26.70;14.90;;;;;;;6.13;100.00;98866.80;100735;1337;22965;-34
2022/09/30 04:07:10;;;;;;;20.10;12.30;;;;;;;6.14;100.00;98874.52;100657;1338;23257;-36
2022/09/30 04:09:37;;;;;;;26.10;13.60;;;;;;;6.15;100.00;98882.23;100872;1339;23336;-32
2022/09/30 04:12:03;;;;;;;22.10;13.30;;;;;;;6.15;100.00;98893.27;100724;1337;23082;-32
2022/09/30 04:14:28;;;;;;;23.30;12.90;;;;;;;6.16;100.00;98891.04;100831;1328;24891;-36
2022/09/30 04:16:54;;;;;;;23.10;14.40;;;;;;;6.16;100.00;98896.09;100851;1338;22997;-33
2022/09/30 04:19:19;;;;;;;19.50;13.00;;;;;;;6.17;100.00;98903.00;100799;1334;23082;-32
2022/09/30 04:21:45;;;;;;;25.60;13.20;;;;;;;6.19;100.00;98906.08;100821;1315;22961;-36
2022/09/30 04:24:11;;;;;;;16.10;11.20;;;;;;;6.22;100.00;98905.91;100771;1331;23023;-36
2022/09/30 04:26:37;;;;;;;17.50;13.10;;;;;;;6.24;100.00;98907.14;100853;1331;23219;-36
2022/09/30 04:29:02;;;;;;;35.70;17.70;;;;;;;6.24;100.00;98907.52;100631;1331;23167;-38
2022/09/30 04:31:28;;;;;;;22.90;16.20;;;;;;;6.23;100.00;98906.67;100860;1323;22880;-36
2022/09/30 04:33:55;;;;;;;18.20;13.00;;;;;;;6.21;100.00;98907.05;100659;1337;23016;-36
2022/09/30 04:36:21;;;;;;;20.90;14.00;;;;;;;6.20;100.00;98913.41;100797;1331;23096;-36
2022/09/30 04:38:47;;;;;;;16.80;11.30;;;;;;;6.19;100.00;98918.05;100712;1339;23227;-32
2022/09/30 04:41:15;;;;;;;65.00;24.60;;;;;;;6.19;100.00;98922.15;100713;1337;22735;-32
2022/09/30 04:43:45;;;;;;;32.60;15.50;;;;;;;6.19;100.00;98922.32;100782;1338;22720;-33
2022/09/30 04:46:12;;;;;;;29.80;14.70;;;;;;;6.19;100.00;98921.70;100723;1334;22732;-33
2022/09/30 04:48:38;;;;;;;27.90;18.00;;;;;;;6.19;100.00;98921.55;100859;1339;22956;-36
2022/09/30 04:51:04;;;;;;;25.00;14.10;;;;;;;6.18;100.00;98920.75;100929;1331;24358;-34
2022/09/30 04:53:30;;;;;;;32.90;19.40;;;;;;;6.21;100.00;98920.10;100761;1339;23218;-36
2022/09/30 04:55:58;;;;;;;19.70;13.00;;;;;;;6.22;100.00;98913.55;100761;1331;23100;-33
2022/09/30 04:58:25;;;;;;;20.50;12.50;;;;;;;6.23;100.00;98916.61;100733;1331;24861;-33
2022/09/30 05:00:51;;;;;;;22.60;12.60;;;;;;;6.24;100.00;98914.58;100753;1331;24472;-36
2022/09/30 05:03:18;;;;;;;30.20;19.80;;;;;;;6.26;100.00;98909.59;100718;1339;24284;-36
2022/09/30 05:05:44;;;;;;;29.10;17.50;;;;;;;6.23;100.00;98903.98;100773;1331;22887;-34
2022/09/30 05:08:10;;;;;;;28.60;17.80;;;;;;;6.21;100.00;98889.83;100899;1339;22556;-36
2022/09/30 05:10:36;;;;;;;29.50;19.80;;;;;;;6.18;100.00;98886.11;100828;1339;24449;-34
2022/09/30 05:13:01;;;;;;;29.30;19.00;;;;;;;6.17;100.00;98880.93;100916;1337;22868;-32
2022/09/30 05:15:27;;;;;;;39.00;22.50;;;;;;;6.18;100.00;98877.96;100810;1331;22732;-33
2022/09/30 05:17:52;;;;;;;28.00;18.40;;;;;;;6.18;100.00;98880.30;100759;1331;22755;-33
2022/09/30 05:20:18;;;;;;;38.50;22.10;;;;;;;6.16;100.00;98882.11;100831;1339;22745;-35
2022/09/30 05:22:44;;;;;;;38.60;19.60;;;;;;;6.16;100.00;98890.60;100773;1339;24370;-35
2022/09/30 05:25:09;;;;;;;36.40;20.20;;;;;;;6.16;100.00;98899.17;100738;1329;25269;-35
2022/09/30 05:27:35;;;;;;;40.80;23.40;;;;;;;6.16;100.00;98908.73;100688;1339;23292;-32
2022/09/30 05:30:01;;;;;;;24.60;16.50;;;;;;;6.19;100.00;98911.57;100661;1339;22889;-35
2022/09/30 05:32:27;;;;;;;33.20;19.90;;;;;;;6.23;100.00;98921.45;100702;1339;22989;-35
2022/09/30 05:34:54;;;;;;;7.10;5.00;;;;;;;6.28;100.00;98934.58;100957;1331;22508;-35
2022/09/30 05:37:20;;;;;;;16.00;10.00;;;;;;;6.33;100.00;98939.42;100711;1338;24827;-33
2022/09/30 05:39:46;;;;;;;35.80;22.10;;;;;;;6.40;100.00;98936.70;100913;1338;23100;-34
2022/09/30 05:42:11;;;;;;;49.10;25.10;;;;;;;6.45;100.00;98935.05;100764;1336;22868;-36
2022/09/30 05:44:37;;;;;;;33.70;21.40;;;;;;;6.47;100.00;98937.95;100748;1331;22511;-36
2022/09/30 05:47:03;;;;;;;33.00;23.00;;;;;;;6.49;100.00;98932.98;100936;1331;23230;-38
2022/09/30 05:49:33;;;;;;;40.30;20.90;;;;;;;6.53;100.00;98933.70;100864;1331;22754;-33
2022/09/30 05:51:59;;;;;;;81.20;36.20;;;;;;;6.59;100.00;98937.71;100798;1338;23092;-32
2022/09/30 05:54:25;;;;;;;94.50;39.00;;;;;;;6.63;100.00;98930.48;100857;1332;23225;-36
2022/09/30 05:56:51;;;;;;;62.00;30.20;;;;;;;6.64;100.00;98927.58;100715;1338;23234;-36
2022/09/30 05:59:17;;;;;;;81.40;37.90;;;;;;;6.67;100.00;98927.55;100875;1337;22510;-33
2022/09/30 06:01:43;;;;;;;42.40;21.40;;;;;;;6.76;100.00;98930.49;100718;1335;23100;-35
2022/09/30 06:04:08;;;;;;;60.40;33.10;;;;;;;6.82;100.00;98937.94;100748;1315;22882;-33
2022/09/30 06:06:34;;;;;;;37.30;22.60;;;;;;;6.87;100.00;98937.64;100761;1339;22868;-36
2022/09/30 06:08:59;;;;;;;40.80;23.10;;;;;;;6.93;100.00;98941.17;100787;1331;22867;-36
2022/09/30 06:11:25;;;;;;;33.30;22.50;;;;;;;6.98;100.00;98946.79;100742;1339;23098;-32
2022/09/30 06:13:51;;;;;;;54.30;33.30;;;;;;;7.06;100.00;98950.02;100805;1338;23593;-32
2022/09/30 06:16:17;;;;;;;64.10;40.40;;;;;;;7.11;100.00;98948.89;100829;1331;22819;-32
2022/09/30 06:18:43;;;;;;;109.30;44.00;;;;;;;7.15;100.00;98945.70;100709;1331;22510;-32
2022/09/30 06:21:11;;;;;;;71.50;29.20;;;;;;;7.21;100.00;98943.02;100853;1338;22757;-36
2022/09/30 06:23:37;;;;;;;48.20;23.60;;;;;;;7.28;100.00;98947.11;100767;1339;22745;-36
2022/09/30 06:26:04;;;;;;;42.40;22.00;;;;;;;7.35;100.00;98951.33;100773;1331;22709;-36
2022/09/30 06:28:33;;;;;;;30.10;17.60;;;;;;;7.40;100.00;98950.83;100693;1339;22544;-36
2022/09/30 06:30:58;;;;;;;43.30;25.60;;;;;;;7.48;100.00;98949.48;100772;1324;24301;-33
2022/09/30 06:33:24;;;;;;;57.40;30.40;;;;;;;7.56;100.00;98951.58;100856;1331;22708;-32
2022/09/30 06:35:49;;;;;;;46.10;27.80;;;;;;;7.59;100.00;98949.48;100738;1321;22724;-33
2022/09/30 06:38:16;;;;;;;33.60;19.90;;;;;;;7.63;100.00;98953.27;100839;1332;22847;-33
2022/09/30 06:40:42;;;;;;;41.10;22.20;;;;;;;7.67;100.00;98952.41;100788;1337;24279;-35
2022/09/30 06:43:08;;;;;;;40.90;24.20;;;;;;;7.71;100.00;98951.83;100774;1339;22881;-32
2022/09/30 06:45:34;;;;;;;43.50;19.70;;;;;;;7.76;100.00;98945.75;100804;1339;22643;-34
2022/09/30 06:48:01;;;;;;;56.10;25.70;;;;;;;7.81;100.00;98948.36;100799;1338;23087;-32
2022/09/30 06:50:27;;;;;;;44.60;23.00;;;;;;;7.88;100.00;98949.59;100911;1332;22718;-37
2022/09/30 06:52:58;;;;;;;43.50;24.60;;;;;;;7.87;100.00;98953.36;100698;1338;22504;-33
2022/09/30 06:55:25;;;;;;;30.60;17.50;;;;;;;7.91;100.00;98953.95;100787;1331;22928;-36
2022/09/30 06:57:52;;;;;;;41.60;22.50;;;;;;;8.00;100.00;98957.02;100877;1339;24340;-33
2022/09/30 07:00:18;;;;;;;38.30;23.40;;;;;;;8.06;100.00;98958.89;100740;1339;22589;-36
2022/09/30 07:02:44;;;;;;;40.80;27.30;;;;;;;8.06;100.00;98953.08;104368;1337;22105;-33
2022/09/30 07:08:13;;;;;;;35.50;25.30;;;;;;;8.03;100.00;98942.91;100179;1345;545222;-34
2022/09/30 07:10:38;;;;;;;28.30;18.40;;;;;;;8.00;100.00;98944.97;100382;1345;24245;-34
2022/09/30 07:13:05;;;;;;;32.70;17.00;;;;;;;7.98;100.00;98946.63;100359;1345;23103;-37
2022/09/30 07:15:31;;;;;;;30.90;21.20;;;;;;;7.97;100.00;98950.57;100336;1339;25420;-37
2022/09/30 07:17:56;;;;;;;36.40;24.70;;;;;;;7.99;100.00;98951.06;100340;1345;23114;-37
2022/09/30 07:20:22;;;;;;;32.80;20.60;;;;;;;8.01;100.00;98955.77;100326;1343;24289;-34
2022/09/30 07:22:48;;;;;;;65.30;28.70;;;;;;;8.04;100.00;98958.50;100193;1342;410401;-37
2022/09/30 07:25:14;;;;;;;61.80;27.40;;;;;;;8.04;100.00;98961.11;100726;1339;25230;-37
2022/09/30 07:27:40;;;;;;;70.80;32.80;;;;;;;8.09;100.00;98964.84;100783;1339;22744;-37
2022/09/30 07:30:06;;;;;;;45.40;23.60;;;;;;;8.10;100.00;98958.47;100785;1331;23338;-41
2022/09/30 07:32:32;;;;;;;40.90;21.80;;;;;;;8.11;100.00;98963.30;100702;1331;22745;-32
2022/09/30 07:34:57;;;;;;;26.50;15.20;;;;;;;8.18;100.00;98963.27;100786;1331;22795;-32
2022/09/30 07:37:23;;;;;;;22.20;13.20;;;;;;;8.22;100.00;98958.35;100753;1339;23091;-33
2022/09/30 07:39:48;;;;;;;22.80;13.10;;;;;;;8.25;100.00;98955.82;100721;1339;22856;-35
2022/09/30 07:42:15;;;;;;;43.70;20.70;;;;;;;8.32;100.00;98956.24;100766;1339;25272;-36
2022/09/30 07:44:42;;;;;;;33.70;16.50;;;;;;;8.38;100.00;98960.61;100755;1338;25403;-36
2022/09/30 07:47:09;;;;;;;35.00;18.60;;;;;;;8.40;100.00;98957.70;100764;1339;22509;-33
2022/09/30 07:49:35;;;;;;;41.00;23.20;;;;;;;8.42;100.00;98955.87;100805;1339;22826;-33
2022/09/30 07:52:01;;;;;;;39.70;21.60;;;;;;;8.48;100.00;98959.26;100785;1331;23236;-36
2022/09/30 07:54:28;;;;;;;48.00;23.20;;;;;;;8.53;100.00;98958.93;100725;1339;22871;-36
2022/09/30 07:56:54;;;;;;;30.90;15.10;;;;;;;8.59;100.00;98952.30;100819;1331;24462;-32
2022/09/30 07:59:19;;;;;;;34.80;20.90;;;;;;;8.70;100.00;98956.42;100817;1339;22509;-34
2022/09/30 08:01:45;;;;;;;26.20;16.10;;;;;;;8.78;100.00;98957.34;100750;1338;24848;-33
2022/09/30 08:04:11;;;;;;;36.10;22.30;;;;;;;8.90;100.00;98961.45;100736;1337;24302;-35
2022/09/30 08:06:38;;;;;;;18.90;13.10;;;;;;;9.01;100.00;98955.54;100841;1331;22877;-33
2022/09/30 08:09:04;;;;;;;24.90;15.70;;;;;;;9.04;100.00;98956.54;100798;1331;23118;-35
2022/09/30 08:11:32;;;;;;;13.90;9.30;;;;;;;9.13;100.00;98954.52;100811;1339;22515;-32
2022/09/30 08:13:58;;;;;;;30.10;16.90;;;;;;;9.25;100.00;98957.33;100831;1331;23109;-33
2022/09/30 08:16:24;;;;;;;16.10;10.80;;;;;;;9.40;100.00;98961.39;100788;1333;22836;-35
2022/09/30 08:18:55;;;;;;;27.20;16.20;;;;;;;9.50;100.00;98962.54;100825;1330;25571;-32
2022/09/30 08:21:21;;;;;;;32.00;17.00;;;;;;;9.58;100.00;98965.54;100709;1333;22504;-33
2022/09/30 08:23:46;;;;;;;33.30;20.20;;;;;;;9.68;100.00;98969.86;100757;1339;23086;-37
2022/09/30 08:26:12;;;;;;;20.70;14.40;;;;;;;9.73;100.00;98969.93;100733;1339;24283;-34
2022/09/30 08:28:38;;;;;;;24.80;11.60;;;;;;;9.72;100.00;98971.77;100758;1337;23109;-34
2022/09/30 08:31:06;;;;;;;21.70;15.60;;;;;;;9.76;100.00;98974.71;100821;1339;22491;-37
2022/09/30 08:33:32;;;;;;;19.70;11.60;;;;;;;9.73;100.00;98970.41;100691;1340;22871;-36
2022/09/30 08:36:02;;;;;;;25.00;16.00;;;;;;;9.62;100.00;98969.44;100766;1339;25417;-36
2022/09/30 08:38:28;;;;;;;15.30;10.20;;;;;;;9.55;100.00;98972.91;100797;1339;23909;-36
2022/09/30 08:41:00;;;;;;;16.40;10.50;;;;;;;9.50;100.00;98971.82;100826;1339;22522;-36
2022/09/30 08:43:30;;;;;;;22.00;14.90;;;;;;;9.51;100.00;98979.00;100771;1331;24379;-38
2022/09/30 08:46:01;;;;;;;23.60;16.00;;;;;;;9.47;100.00;98978.52;100756;1339;24271;-34
2022/09/30 08:48:35;;;;;;;25.80;16.80;;;;;;;9.47;100.00;98979.96;100742;1330;22899;-36
2022/09/30 08:51:07;;;;;;;20.00;11.60;;;;;;;9.52;100.00;98990.55;100783;1331;22490;-36
2022/09/30 08:53:35;;;;;;;37.20;23.10;;;;;;;9.55;100.00;98990.44;100756;1331;23344;-36
2022/09/30 08:56:01;;;;;;;29.20;16.40;;;;;;;9.62;100.00;98991.13;100816;1330;23229;-35
2022/09/30 08:58:29;;;;;;;25.40;15.20;;;;;;;9.64;100.00;98988.09;100804;1331;22710;-34
2022/09/30 09:00:59;;;;;;;122.20;54.20;;;;;;;9.73;100.00;98987.82;100836;1339;23915;-36
2022/09/30 09:03:27;;;;;;;37.30;20.70;;;;;;;9.78;100.00;98988.98;100720;1339;22621;-36
2022/09/30 09:05:59;;;;;;;27.70;18.90;;;;;;;9.85;100.00;98987.86;100724;1334;27020;-34
2022/09/30 09:08:28;;;;;;;;;;;;;;;9.88;100.00;98986.35;100811;1339;25366;-38
2022/09/30 09:11:00;;;;;;;15.70;11.50;;;;;;;9.81;100.00;98985.47;100774;1339;22869;-37
2022/09/30 09:13:32;;;;;;;33.70;18.70;;;;;;;9.81;100.00;98988.64;100692;1331;22551;-36
2022/09/30 09:16:05;;;;;;;17.50;15.30;;;;;;;9.83;100.00;98990.21;100806;1338;22515;-34
2022/09/30 09:18:38;;;;;;;27.10;16.90;;;;;;;9.85;100.00;98988.14;100786;1339;23017;-36
2022/09/30 09:21:12;;;;;;;24.80;14.50;;;;;;;9.92;100.00;98990.07;100812;1330;22758;-34
2022/09/30 09:23:37;;;;;;;22.60;16.70;;;;;;;9.93;100.00;98987.10;100834;1339;25281;-33
2022/09/30 09:26:04;;;;;;;19.50;13.10;;;;;;;9.92;100.00;98988.27;100718;1331;23119;-37
2022/09/30 09:28:35;;;;;;;22.20;15.70;;;;;;;9.96;100.00;98991.53;100783;1339;22513;-34
2022/09/30 09:31:02;;;;;;;21.50;16.50;;;;;;;10.01;100.00;98993.20;100829;1331;23087;-37
2022/09/30 09:33:30;;;;;;;20.50;15.50;;;;;;;10.03;100.00;98996.99;100748;1331;22736;-33
2022/09/30 09:36:04;;;;;;;23.20;16.10;;;;;;;10.07;100.00;98999.94;100800;1339;24343;-37
2022/09/30 09:38:34;;;;;;;26.40;15.50;;;;;;;10.10;100.00;98998.70;100762;1339;24292;-37
2022/09/30 09:41:05;;;;;;;18.20;14.80;;;;;;;10.06;100.00;99008.14;100724;1339;22900;-33
2022/09/30 09:43:35;;;;;;;15.60;13.30;;;;;;;10.09;100.00;99012.70;100701;1334;23235;-33
2022/09/30 09:46:15;;;;;;;19.30;14.20;;;;;;;10.10;100.00;99011.30;100768;1331;24354;-34
2022/09/30 09:48:41;;;;;;;5.70;4.90;;;;;;;10.12;100.00;99014.15;100754;1332;24573;-35
2022/09/30 09:51:12;;;;;;;23.10;12.90;;;;;;;10.15;100.00;99018.02;100789;1331;22758;-34
2022/09/30 09:53:44;;;;;;;25.70;14.70;;;;;;;10.18;100.00;99017.05;100663;1334;23099;-35
2022/09/30 09:56:17;;;;;;;23.80;14.90;;;;;;;10.18;100.00;99014.11;100797;1339;25230;-32
2022/09/30 09:59:03;;;;;;;;;;;;;;;10.20;100.00;99019.28;100706;1331;22889;-38
2022/09/30 10:01:31;;;;;;;24.60;15.30;;;;;;;10.24;100.00;99014.42;100707;1331;25475;-33
2022/09/30 10:04:04;;;;;;;13.70;10.30;;;;;;;10.22;100.00;99018.29;100683;1334;23154;-39
2022/09/30 10:06:43;;;;;;;23.90;13.30;;;;;;;10.28;100.00;99022.63;100858;1331;22871;-38
2022/09/30 10:09:33;;;;;;;23.10;14.60;;;;;;;10.30;100.00;99029.41;100678;1324;22516;-33
2022/09/30 10:12:25;;;;;;;14.20;10.10;;;;;;;10.37;100.00;99022.60;100816;1331;23191;-34
2022/09/30 10:14:55;;;;;;;16.90;13.50;;;;;;;10.43;100.00;99020.89;100741;1339;22890;-34
2022/09/30 10:17:25;;;;;;;15.60;9.10;;;;;;;10.49;100.00;99014.23;100752;1338;24399;-37
2022/09/30 10:19:52;;;;;;;19.60;11.00;;;;;;;10.54;100.00;99018.08;100814;1339;22828;-36
2022/09/30 10:22:22;;;;;;;20.10;12.30;;;;;;;10.59;100.00;99014.86;100756;1339;23351;-36
2022/09/30 10:24:48;;;;;;;19.80;12.40;;;;;;;10.65;100.00;99019.73;100737;1339;23232;-34
2022/09/30 10:27:20;;;;;;;19.80;10.20;;;;;;;10.66;100.00;99023.70;100812;1339;23087;-35
2022/09/30 10:29:46;;;;;;;14.50;10.70;;;;;;;10.73;100.00;99024.81;100777;1339;24279;-39
2022/09/30 10:32:11;;;;;;;13.70;9.20;;;;;;;10.71;100.00;99028.74;100822;1332;23100;-34
2022/09/30 10:34:39;;;;;;;16.80;12.10;;;;;;;10.70;100.00;99030.48;100795;1334;22737;-33
2022/09/30 10:37:08;;;;;;;12.20;8.60;;;;;;;10.74;100.00;99030.40;100752;1338;24296;-36
2022/09/30 10:39:35;;;;;;;18.10;12.30;;;;;;;10.84;100.00;99026.67;100713;1337;23094;-33
2022/09/30 10:42:06;;;;;;;23.90;11.40;;;;;;;11.03;100.00;99022.33;100643;1339;24595;-33
2022/09/30 10:44:41;;;;;;;21.90;14.10;;;;;;;11.09;100.00;99017.55;100622;1339;23121;-35
2022/09/30 10:47:07;;;;;;;12.50;7.70;;;;;;;11.12;100.00;99027.15;100769;1324;22651;-32
2022/09/30 10:49:38;;;;;;;12.60;8.00;;;;;;;11.08;100.00;99027.31;100631;1339;22744;-34
2022/09/30 10:52:04;;;;;;;17.60;11.00;;;;;;;11.19;100.00;99029.11;100743;1339;22519;-35
2022/09/30 10:54:35;;;;;;;15.20;10.40;;;;;;;11.30;100.00;99027.61;100724;1333;23089;-33
2022/09/30 10:57:02;;;;;;;12.50;8.90;;;;;;;11.40;100.00;99022.45;100835;1339;23490;-38
2022/09/30 10:59:34;;;;;;;9.90;7.20;;;;;;;11.42;100.00;99024.56;100831;1339;22893;-37
2022/09/30 11:02:09;;;;;;;17.20;10.90;;;;;;;11.54;100.00;99022.74;100778;1339;22918;-33
2022/09/30 11:04:38;;;;;;;17.50;11.40;;;;;;;11.71;100.00;99018.96;100686;1331;22770;-36
2022/09/30 11:07:10;;;;;;;12.50;8.70;;;;;;;11.67;100.00;99016.90;100718;1339;25567;-34
2022/09/30 11:09:39;;;;;;;9.50;8.40;;;;;;;11.61;100.00;99017.92;100769;1339;23920;-36
2022/09/30 11:12:11;;;;;;;16.00;12.30;;;;;;;11.58;100.00;99022.65;100701;1335;22525;-34
2022/09/30 11:14:43;;;;;;;18.60;9.30;;;;;;;11.62;100.00;99021.67;100753;1339;24448;-36
2022/09/30 11:17:20;;;;;;;14.00;10.70;;;;;;;11.60;100.00;99023.27;100714;1331;22745;-37